sensor_id;sensor_type;location;lat;lon;timestamp;temperature;humidity
40638;DHT22;26336;44.696;10.622;2022-07-10T00:01:20;24.50;70.20
40638;DHT22;26336;44.696;10.622;2022-07-10T00:04:25;24.40;69.90
40638;DHT22;26336;44.696;10.622;2022-07-10T00:07:29;24.40;70.00
40638;DHT22;26336;44.696;10.622;2022-07-10T00:10:33;24.30;70.00
40638;DHT22;26336;44.696;10.622;2022-07-10T00:13:37;24.30;70.30
40638;DHT22;26336;44.696;10.622;2022-07-10T00:16:42;24.20;70.60
40638;DHT22;26336;44.696;10.622;2022-07-10T00:19:45;24.10;70.70
40638;DHT22;26336;44.696;10.622;2022-07-10T00:22:49;24.10;71.00
40638;DHT22;26336;44.696;10.622;2022-07-10T00:25:53;24.10;71.10
40638;DHT22;26336;44.696;10.622;2022-07-10T00:28:58;24.10;71.20
40638;DHT22;26336;44.696;10.622;2022-07-10T00:32:02;24.10;71.30
40638;DHT22;26336;44.696;10.622;2022-07-10T00:35:07;24.10;71.60
40638;DHT22;26336;44.696;10.622;2022-07-10T00:38:12;24.10;71.60
40638;DHT22;26336;44.696;10.622;2022-07-10T00:41:16;24.00;71.60
40638;DHT22;26336;44.696;10.622;2022-07-10T00:44:20;24.00;71.80
40638;DHT22;26336;44.696;10.622;2022-07-10T00:47:24;24.00;71.90
40638;DHT22;26336;44.696;10.622;2022-07-10T00:50:28;24.00;72.00
40638;DHT22;26336;44.696;10.622;2022-07-10T00:53:33;23.90;72.10
40638;DHT22;26336;44.696;10.622;2022-07-10T00:56:37;23.90;72.30
40638;DHT22;26336;44.696;10.622;2022-07-10T00:59:41;23.70;72.50
40638;DHT22;26336;44.696;10.622;2022-07-10T01:02:45;23.70;72.80
40638;DHT22;26336;44.696;10.622;2022-07-10T01:05:50;23.50;73.20
40638;DHT22;26336;44.696;10.622;2022-07-10T01:08:57;23.50;73.30
40638;DHT22;26336;44.696;10.622;2022-07-10T01:12:02;23.60;73.30
40638;DHT22;26336;44.696;10.622;2022-07-10T01:15:09;23.60;73.20
40638;DHT22;26336;44.696;10.622;2022-07-10T01:18:14;23.60;73.20
40638;DHT22;26336;44.696;10.622;2022-07-10T01:21:34;23.70;73.20
40638;DHT22;26336;44.696;10.622;2022-07-10T01:24:41;23.60;73.40
40638;DHT22;26336;44.696;10.622;2022-07-10T01:27:45;23.60;73.50
40638;DHT22;26336;44.696;10.622;2022-07-10T01:30:49;23.60;73.70
40638;DHT22;26336;44.696;10.622;2022-07-10T01:33:54;23.60;73.90
40638;DHT22;26336;44.696;10.622;2022-07-10T01:36:58;23.50;74.10
40638;DHT22;26336;44.696;10.622;2022-07-10T01:40:03;23.40;74.30
40638;DHT22;26336;44.696;10.622;2022-07-10T01:43:07;23.30;74.30
40638;DHT22;26336;44.696;10.622;2022-07-10T01:46:18;23.20;74.30
40638;DHT22;26336;44.696;10.622;2022-07-10T01:49:22;23.20;74.00
40638;DHT22;26336;44.696;10.622;2022-07-10T01:52:28;23.00;74.50
40638;DHT22;26336;44.696;10.622;2022-07-10T01:55:32;22.90;74.90
40638;DHT22;26336;44.696;10.622;2022-07-10T01:58:37;22.90;75.00
40638;DHT22;26336;44.696;10.622;2022-07-10T02:01:41;23.00;75.00
40638;DHT22;26336;44.696;10.622;2022-07-10T02:04:48;23.10;75.00
40638;DHT22;26336;44.696;10.622;2022-07-10T02:07:52;23.10;74.60
40638;DHT22;26336;44.696;10.622;2022-07-10T02:10:56;23.10;74.50
40638;DHT22;26336;44.696;10.622;2022-07-10T02:14:01;23.10;74.70
40638;DHT22;26336;44.696;10.622;2022-07-10T02:17:05;23.10;74.70
40638;DHT22;26336;44.696;10.622;2022-07-10T02:20:13;23.00;75.00
40638;DHT22;26336;44.696;10.622;2022-07-10T02:23:19;23.00;75.00
40638;DHT22;26336;44.696;10.622;2022-07-10T02:26:23;23.00;75.10
40638;DHT22;26336;44.696;10.622;2022-07-10T02:29:27;23.10;75.10
40638;DHT22;26336;44.696;10.622;2022-07-10T02:32:31;23.00;75.00
40638;DHT22;26336;44.696;10.622;2022-07-10T02:35:38;23.00;75.10
40638;DHT22;26336;44.696;10.622;2022-07-10T02:38:42;22.90;75.30
40638;DHT22;26336;44.696;10.622;2022-07-10T02:41:46;22.80;75.60
40638;DHT22;26336;44.696;10.622;2022-07-10T02:44:49;22.90;75.70
40638;DHT22;26336;44.696;10.622;2022-07-10T02:47:53;22.90;75.60
40638;DHT22;26336;44.696;10.622;2022-07-10T02:50:57;22.90;75.70
40638;DHT22;26336;44.696;10.622;2022-07-10T02:54:01;22.90;75.60
40638;DHT22;26336;44.696;10.622;2022-07-10T02:57:06;22.90;75.20
40638;DHT22;26336;44.696;10.622;2022-07-10T03:00:10;22.90;74.80
40638;DHT22;26336;44.696;10.622;2022-07-10T03:03:15;22.90;74.90
40638;DHT22;26336;44.696;10.622;2022-07-10T03:06:20;22.90;75.00
40638;DHT22;26336;44.696;10.622;2022-07-10T03:09:24;22.80;75.10
40638;DHT22;26336;44.696;10.622;2022-07-10T03:12:28;22.80;75.30
40638;DHT22;26336;44.696;10.622;2022-07-10T03:15:53;22.80;75.60
40638;DHT22;26336;44.696;10.622;2022-07-10T03:18:58;22.70;75.60
40638;DHT22;26336;44.696;10.622;2022-07-10T03:22:02;22.70;75.60
40638;DHT22;26336;44.696;10.622;2022-07-10T03:25:06;22.70;75.60
40638;DHT22;26336;44.696;10.622;2022-07-10T03:28:10;22.60;75.40
40638;DHT22;26336;44.696;10.622;2022-07-10T03:31:14;22.60;75.20
40638;DHT22;26336;44.696;10.622;2022-07-10T03:34:18;22.60;75.40
40638;DHT22;26336;44.696;10.622;2022-07-10T03:37:24;22.50;75.60
40638;DHT22;26336;44.696;10.622;2022-07-10T03:40:29;22.50;75.80
40638;DHT22;26336;44.696;10.622;2022-07-10T03:43:33;22.40;75.90
40638;DHT22;26336;44.696;10.622;2022-07-10T03:46:37;22.40;76.00
40638;DHT22;26336;44.696;10.622;2022-07-10T03:49:41;22.30;76.20
40638;DHT22;26336;44.696;10.622;2022-07-10T03:52:46;22.30;76.30
40638;DHT22;26336;44.696;10.622;2022-07-10T03:55:50;22.30;76.20
40638;DHT22;26336;44.696;10.622;2022-07-10T03:58:54;22.20;76.50
40638;DHT22;26336;44.696;10.622;2022-07-10T04:01:58;22.30;76.50
40638;DHT22;26336;44.696;10.622;2022-07-10T04:05:05;22.20;76.40
40638;DHT22;26336;44.696;10.622;2022-07-10T04:08:10;22.30;76.40
40638;DHT22;26336;44.696;10.622;2022-07-10T04:11:15;22.30;76.10
40638;DHT22;26336;44.696;10.622;2022-07-10T04:14:19;22.30;76.20
40638;DHT22;26336;44.696;10.622;2022-07-10T04:17:23;22.30;76.30
40638;DHT22;26336;44.696;10.622;2022-07-10T04:20:27;22.30;76.50
40638;DHT22;26336;44.696;10.622;2022-07-10T04:23:34;22.30;76.50
40638;DHT22;26336;44.696;10.622;2022-07-10T04:26:38;22.30;76.30
40638;DHT22;26336;44.696;10.622;2022-07-10T04:29:45;22.30;76.50
40638;DHT22;26336;44.696;10.622;2022-07-10T04:32:49;22.30;76.40
40638;DHT22;26336;44.696;10.622;2022-07-10T04:35:53;22.30;76.30
40638;DHT22;26336;44.696;10.622;2022-07-10T04:38:57;22.30;76.00
40638;DHT22;26336;44.696;10.622;2022-07-10T04:42:01;22.30;76.00
40638;DHT22;26336;44.696;10.622;2022-07-10T04:45:07;22.30;76.30
40638;DHT22;26336;44.696;10.622;2022-07-10T04:48:11;22.20;76.60
40638;DHT22;26336;44.696;10.622;2022-07-10T04:51:15;22.20;76.20
40638;DHT22;26336;44.696;10.622;2022-07-10T04:54:19;22.20;76.50
40638;DHT22;26336;44.696;10.622;2022-07-10T04:57:23;22.20;76.70
40638;DHT22;26336;44.696;10.622;2022-07-10T05:00:27;22.20;76.70
40638;DHT22;26336;44.696;10.622;2022-07-10T05:03:30;22.30;76.90
40638;DHT22;26336;44.696;10.622;2022-07-10T05:06:34;22.20;77.00
40638;DHT22;26336;44.696;10.622;2022-07-10T05:09:38;22.20;77.30
40638;DHT22;26336;44.696;10.622;2022-07-10T05:12:42;22.30;77.60
40638;DHT22;26336;44.696;10.622;2022-07-10T05:15:52;22.30;77.80
40638;DHT22;26336;44.696;10.622;2022-07-10T05:18:56;22.30;77.80
40638;DHT22;26336;44.696;10.622;2022-07-10T05:22:00;22.30;77.60
40638;DHT22;26336;44.696;10.622;2022-07-10T05:25:05;22.30;77.30
40638;DHT22;26336;44.696;10.622;2022-07-10T05:28:08;22.40;77.20
40638;DHT22;26336;44.696;10.622;2022-07-10T05:31:12;22.40;77.10
40638;DHT22;26336;44.696;10.622;2022-07-10T05:34:17;22.40;77.30
40638;DHT22;26336;44.696;10.622;2022-07-10T05:37:20;22.40;77.50
40638;DHT22;26336;44.696;10.622;2022-07-10T05:40:24;22.50;77.60
40638;DHT22;26336;44.696;10.622;2022-07-10T05:43:28;22.50;77.90
40638;DHT22;26336;44.696;10.622;2022-07-10T05:46:33;22.50;78.10
40638;DHT22;26336;44.696;10.622;2022-07-10T05:49:37;22.60;78.10
40638;DHT22;26336;44.696;10.622;2022-07-10T05:52:47;22.60;77.70
40638;DHT22;26336;44.696;10.622;2022-07-10T05:55:51;22.70;78.10
40638;DHT22;26336;44.696;10.622;2022-07-10T05:58:55;22.70;78.00
40638;DHT22;26336;44.696;10.622;2022-07-10T06:01:59;22.70;78.00
40638;DHT22;26336;44.696;10.622;2022-07-10T06:05:03;22.80;77.90
40638;DHT22;26336;44.696;10.622;2022-07-10T06:08:08;22.80;77.70
40638;DHT22;26336;44.696;10.622;2022-07-10T06:11:12;22.80;77.80
40638;DHT22;26336;44.696;10.622;2022-07-10T06:14:16;22.90;78.10
40638;DHT22;26336;44.696;10.622;2022-07-10T06:17:20;22.90;78.50
40638;DHT22;26336;44.696;10.622;2022-07-10T06:20:25;22.90;78.60
40638;DHT22;26336;44.696;10.622;2022-07-10T06:23:30;23.00;78.40
40638;DHT22;26336;44.696;10.622;2022-07-10T06:26:34;23.00;78.20
40638;DHT22;26336;44.696;10.622;2022-07-10T06:29:38;23.10;78.20
40638;DHT22;26336;44.696;10.622;2022-07-10T06:32:46;23.10;77.50
40638;DHT22;26336;44.696;10.622;2022-07-10T06:36:09;23.20;77.00
40638;DHT22;26336;44.696;10.622;2022-07-10T06:39:13;23.20;76.70
40638;DHT22;26336;44.696;10.622;2022-07-10T06:42:18;23.30;77.10
40638;DHT22;26336;44.696;10.622;2022-07-10T06:45:26;23.40;76.80
40638;DHT22;26336;44.696;10.622;2022-07-10T06:48:30;23.40;76.40
40638;DHT22;26336;44.696;10.622;2022-07-10T06:51:36;23.40;76.20
40638;DHT22;26336;44.696;10.622;2022-07-10T06:54:43;23.50;76.40
40638;DHT22;26336;44.696;10.622;2022-07-10T06:57:48;23.50;76.40
40638;DHT22;26336;44.696;10.622;2022-07-10T07:00:52;23.60;75.90
40638;DHT22;26336;44.696;10.622;2022-07-10T07:03:56;23.70;76.10
40638;DHT22;26336;44.696;10.622;2022-07-10T07:07:02;23.70;76.50
40638;DHT22;26336;44.696;10.622;2022-07-10T07:10:11;23.70;76.50
40638;DHT22;26336;44.696;10.622;2022-07-10T07:13:15;23.80;77.00
40638;DHT22;26336;44.696;10.622;2022-07-10T07:16:19;23.90;77.60
40638;DHT22;26336;44.696;10.622;2022-07-10T07:19:30;23.90;77.00
40638;DHT22;26336;44.696;10.622;2022-07-10T07:22:36;23.90;75.70
40638;DHT22;26336;44.696;10.622;2022-07-10T07:25:58;23.90;75.70
40638;DHT22;26336;44.696;10.622;2022-07-10T07:29:02;24.00;75.80
40638;DHT22;26336;44.696;10.622;2022-07-10T07:32:06;24.00;75.30
40638;DHT22;26336;44.696;10.622;2022-07-10T07:35:15;24.10;74.90
40638;DHT22;26336;44.696;10.622;2022-07-10T07:38:19;24.10;75.20
40638;DHT22;26336;44.696;10.622;2022-07-10T07:41:23;24.10;74.40
40638;DHT22;26336;44.696;10.622;2022-07-10T07:44:27;24.10;74.70
40638;DHT22;26336;44.696;10.622;2022-07-10T07:47:46;24.20;75.00
40638;DHT22;26336;44.696;10.622;2022-07-10T07:50:50;24.20;75.10
40638;DHT22;26336;44.696;10.622;2022-07-10T07:53:54;24.30;75.20
40638;DHT22;26336;44.696;10.622;2022-07-10T07:56:58;24.40;75.30
40638;DHT22;26336;44.696;10.622;2022-07-10T08:00:06;24.40;74.80
40638;DHT22;26336;44.696;10.622;2022-07-10T08:03:16;24.40;74.50
40638;DHT22;26336;44.696;10.622;2022-07-10T08:06:19;24.50;74.60
40638;DHT22;26336;44.696;10.622;2022-07-10T08:09:23;24.50;74.50
40638;DHT22;26336;44.696;10.622;2022-07-10T08:12:27;24.60;73.50
40638;DHT22;26336;44.696;10.622;2022-07-10T08:15:34;24.60;73.80
40638;DHT22;26336;44.696;10.622;2022-07-10T08:18:38;24.70;73.60
40638;DHT22;26336;44.696;10.622;2022-07-10T08:21:43;24.70;73.70
40638;DHT22;26336;44.696;10.622;2022-07-10T08:24:47;24.80;73.80
40638;DHT22;26336;44.696;10.622;2022-07-10T08:27:53;24.80;73.90
40638;DHT22;26336;44.696;10.622;2022-07-10T08:30:57;24.90;74.00
40638;DHT22;26336;44.696;10.622;2022-07-10T08:34:01;24.90;73.60
40638;DHT22;26336;44.696;10.622;2022-07-10T08:37:05;25.00;73.40
40638;DHT22;26336;44.696;10.622;2022-07-10T08:40:12;25.10;73.40
40638;DHT22;26336;44.696;10.622;2022-07-10T08:43:17;25.20;72.90
40638;DHT22;26336;44.696;10.622;2022-07-10T08:46:21;25.20;72.60
40638;DHT22;26336;44.696;10.622;2022-07-10T08:49:27;25.20;72.30
40638;DHT22;26336;44.696;10.622;2022-07-10T08:52:43;25.30;72.30
40638;DHT22;26336;44.696;10.622;2022-07-10T08:55:48;25.40;72.10
40638;DHT22;26336;44.696;10.622;2022-07-10T08:58:53;25.50;71.60
40638;DHT22;26336;44.696;10.622;2022-07-10T09:01:58;25.50;72.40
40638;DHT22;26336;44.696;10.622;2022-07-10T09:05:02;25.60;71.70
40638;DHT22;26336;44.696;10.622;2022-07-10T09:08:26;25.70;71.50
40638;DHT22;26336;44.696;10.622;2022-07-10T09:11:38;25.80;71.30
40638;DHT22;26336;44.696;10.622;2022-07-10T09:14:44;25.90;71.80
40638;DHT22;26336;44.696;10.622;2022-07-10T09:17:53;25.90;71.60
40638;DHT22;26336;44.696;10.622;2022-07-10T09:20:58;26.00;71.20
40638;DHT22;26336;44.696;10.622;2022-07-10T09:24:03;26.10;71.00
40638;DHT22;26336;44.696;10.622;2022-07-10T09:27:14;26.20;70.90
40638;DHT22;26336;44.696;10.622;2022-07-10T09:30:32;26.40;70.40
40638;DHT22;26336;44.696;10.622;2022-07-10T09:33:37;26.40;70.10
40638;DHT22;26336;44.696;10.622;2022-07-10T09:36:44;26.50;69.70
40638;DHT22;26336;44.696;10.622;2022-07-10T09:42:56;26.60;69.90
40638;DHT22;26336;44.696;10.622;2022-07-10T09:46:00;26.70;68.60
40638;DHT22;26336;44.696;10.622;2022-07-10T09:52:11;26.90;68.50
40638;DHT22;26336;44.696;10.622;2022-07-10T09:55:16;27.10;67.70
40638;DHT22;26336;44.696;10.622;2022-07-10T09:58:26;27.10;68.10
40638;DHT22;26336;44.696;10.622;2022-07-10T10:01:31;27.20;68.00
40638;DHT22;26336;44.696;10.622;2022-07-10T10:04:36;27.30;67.90
40638;DHT22;26336;44.696;10.622;2022-07-10T10:07:41;27.40;67.00
40638;DHT22;26336;44.696;10.622;2022-07-10T10:10:47;27.50;65.60
40638;DHT22;26336;44.696;10.622;2022-07-10T10:13:52;27.50;65.40
40638;DHT22;26336;44.696;10.622;2022-07-10T10:16:57;27.60;65.50
40638;DHT22;26336;44.696;10.622;2022-07-10T10:20:04;27.70;65.10
40638;DHT22;26336;44.696;10.622;2022-07-10T10:23:35;27.70;64.80
40638;DHT22;26336;44.696;10.622;2022-07-10T10:26:39;27.70;63.60
40638;DHT22;26336;44.696;10.622;2022-07-10T10:29:45;27.80;62.40
40638;DHT22;26336;44.696;10.622;2022-07-10T10:32:49;27.90;64.70
40638;DHT22;26336;44.696;10.622;2022-07-10T10:35:53;27.90;64.50
40638;DHT22;26336;44.696;10.622;2022-07-10T10:39:03;28.00;64.90
40638;DHT22;26336;44.696;10.622;2022-07-10T10:42:07;28.00;63.70
40638;DHT22;26336;44.696;10.622;2022-07-10T10:45:45;28.00;63.50
40638;DHT22;26336;44.696;10.622;2022-07-10T10:49:06;28.10;63.20
40638;DHT22;26336;44.696;10.622;2022-07-10T10:52:11;28.20;62.80
40638;DHT22;26336;44.696;10.622;2022-07-10T10:55:17;28.40;61.80
40638;DHT22;26336;44.696;10.622;2022-07-10T10:58:24;28.40;61.00
40638;DHT22;26336;44.696;10.622;2022-07-10T11:01:29;28.50;61.20
40638;DHT22;26336;44.696;10.622;2022-07-10T11:04:33;28.60;61.00
40638;DHT22;26336;44.696;10.622;2022-07-10T11:11:00;28.70;62.00
40638;DHT22;26336;44.696;10.622;2022-07-10T11:14:04;28.80;61.90
40638;DHT22;26336;44.696;10.622;2022-07-10T11:17:09;28.70;60.70
40638;DHT22;26336;44.696;10.622;2022-07-10T11:20:13;28.70;61.20
40638;DHT22;26336;44.696;10.622;2022-07-10T11:26:54;28.80;61.20
40638;DHT22;26336;44.696;10.622;2022-07-10T11:30:00;28.80;62.40
40638;DHT22;26336;44.696;10.622;2022-07-10T11:33:05;28.70;62.30
40638;DHT22;26336;44.696;10.622;2022-07-10T11:36:18;28.80;61.20
40638;DHT22;26336;44.696;10.622;2022-07-10T11:39:22;28.80;60.90
40638;DHT22;26336;44.696;10.622;2022-07-10T11:45:54;28.90;60.50
40638;DHT22;26336;44.696;10.622;2022-07-10T11:49:04;29.00;59.60
40638;DHT22;26336;44.696;10.622;2022-07-10T11:52:10;29.10;59.50
40638;DHT22;26336;44.696;10.622;2022-07-10T11:55:22;29.20;59.20
40638;DHT22;26336;44.696;10.622;2022-07-10T11:58:26;29.20;59.00
40638;DHT22;26336;44.696;10.622;2022-07-10T12:01:32;29.30;58.90
40638;DHT22;26336;44.696;10.622;2022-07-10T12:04:37;29.30;59.60
40638;DHT22;26336;44.696;10.622;2022-07-10T12:07:41;29.30;58.90
40638;DHT22;26336;44.696;10.622;2022-07-10T12:10:46;29.30;58.40
40638;DHT22;26336;44.696;10.622;2022-07-10T12:13:51;29.30;59.20
40638;DHT22;26336;44.696;10.622;2022-07-10T12:16:58;29.30;58.30
40638;DHT22;26336;44.696;10.622;2022-07-10T12:20:03;29.40;57.50
40638;DHT22;26336;44.696;10.622;2022-07-10T12:23:08;29.50;57.50
40638;DHT22;26336;44.696;10.622;2022-07-10T12:26:14;29.50;59.30
40638;DHT22;26336;44.696;10.622;2022-07-10T12:29:26;29.50;57.90
40638;DHT22;26336;44.696;10.622;2022-07-10T12:32:30;29.60;57.80
40638;DHT22;26336;44.696;10.622;2022-07-10T12:38:56;29.60;58.30
40638;DHT22;26336;44.696;10.622;2022-07-10T12:42:05;29.60;56.90
40638;DHT22;26336;44.696;10.622;2022-07-10T12:45:13;29.60;56.70
40638;DHT22;26336;44.696;10.622;2022-07-10T12:48:22;29.70;56.70
40638;DHT22;26336;44.696;10.622;2022-07-10T12:51:30;29.70;56.90
40638;DHT22;26336;44.696;10.622;2022-07-10T12:54:36;29.80;56.90
40638;DHT22;26336;44.696;10.622;2022-07-10T13:00:52;29.90;58.30
40638;DHT22;26336;44.696;10.622;2022-07-10T13:03:58;29.80;55.80
40638;DHT22;26336;44.696;10.622;2022-07-10T13:07:13;29.80;55.70
40638;DHT22;26336;44.696;10.622;2022-07-10T13:10:17;29.70;55.90
40638;DHT22;26336;44.696;10.622;2022-07-10T13:13:22;29.80;57.70
40638;DHT22;26336;44.696;10.622;2022-07-10T13:16:26;29.90;57.40
40638;DHT22;26336;44.696;10.622;2022-07-10T13:19:30;29.90;56.80
40638;DHT22;26336;44.696;10.622;2022-07-10T13:22:34;30.00;55.30
40638;DHT22;26336;44.696;10.622;2022-07-10T13:25:39;30.00;55.00
40638;DHT22;26336;44.696;10.622;2022-07-10T13:28:44;30.00;55.70
40638;DHT22;26336;44.696;10.622;2022-07-10T13:31:48;29.90;54.50
40638;DHT22;26336;44.696;10.622;2022-07-10T13:34:52;30.00;55.80
40638;DHT22;26336;44.696;10.622;2022-07-10T13:37:57;30.20;56.30
40638;DHT22;26336;44.696;10.622;2022-07-10T13:41:03;30.30;55.70
40638;DHT22;26336;44.696;10.622;2022-07-10T13:44:08;30.40;55.40
40638;DHT22;26336;44.696;10.622;2022-07-10T13:47:12;30.50;55.00
40638;DHT22;26336;44.696;10.622;2022-07-10T13:50:17;30.40;54.60
40638;DHT22;26336;44.696;10.622;2022-07-10T13:53:21;30.50;53.20
40638;DHT22;26336;44.696;10.622;2022-07-10T13:56:25;30.60;53.30
40638;DHT22;26336;44.696;10.622;2022-07-10T13:59:29;30.60;53.80
40638;DHT22;26336;44.696;10.622;2022-07-10T14:02:33;30.50;55.10
40638;DHT22;26336;44.696;10.622;2022-07-10T14:05:37;30.50;53.90
40638;DHT22;26336;44.696;10.622;2022-07-10T14:08:42;30.50;54.10
40638;DHT22;26336;44.696;10.622;2022-07-10T14:11:46;30.50;53.30
40638;DHT22;26336;44.696;10.622;2022-07-10T14:14:50;30.60;52.90
40638;DHT22;26336;44.696;10.622;2022-07-10T14:17:54;30.60;53.10
40638;DHT22;26336;44.696;10.622;2022-07-10T14:20:58;30.60;53.20
40638;DHT22;26336;44.696;10.622;2022-07-10T14:24:11;30.60;53.70
40638;DHT22;26336;44.696;10.622;2022-07-10T14:27:15;30.80;52.20
40638;DHT22;26336;44.696;10.622;2022-07-10T14:30:19;30.80;52.10
40638;DHT22;26336;44.696;10.622;2022-07-10T14:33:24;30.70;52.10
40638;DHT22;26336;44.696;10.622;2022-07-10T14:36:28;30.80;52.20
40638;DHT22;26336;44.696;10.622;2022-07-10T14:39:32;30.80;52.60
40638;DHT22;26336;44.696;10.622;2022-07-10T14:42:36;30.80;53.70
40638;DHT22;26336;44.696;10.622;2022-07-10T14:45:41;30.80;53.20
40638;DHT22;26336;44.696;10.622;2022-07-10T14:48:45;30.80;53.40
40638;DHT22;26336;44.696;10.622;2022-07-10T14:51:49;30.70;53.00
40638;DHT22;26336;44.696;10.622;2022-07-10T14:54:53;30.70;53.80
40638;DHT22;26336;44.696;10.622;2022-07-10T14:57:57;30.70;52.70
40638;DHT22;26336;44.696;10.622;2022-07-10T15:01:01;30.60;53.80
40638;DHT22;26336;44.696;10.622;2022-07-10T15:04:06;30.60;53.00
40638;DHT22;26336;44.696;10.622;2022-07-10T15:07:10;30.60;53.20
40638;DHT22;26336;44.696;10.622;2022-07-10T15:10:14;30.60;52.80
40638;DHT22;26336;44.696;10.622;2022-07-10T15:13:20;30.70;53.50
40638;DHT22;26336;44.696;10.622;2022-07-10T15:16:28;30.70;52.60
40638;DHT22;26336;44.696;10.622;2022-07-10T15:19:33;30.70;52.70
40638;DHT22;26336;44.696;10.622;2022-07-10T15:22:37;30.70;53.10
40638;DHT22;26336;44.696;10.622;2022-07-10T15:25:42;30.70;54.80
40638;DHT22;26336;44.696;10.622;2022-07-10T15:28:46;30.70;53.80
40638;DHT22;26336;44.696;10.622;2022-07-10T15:31:51;30.70;53.80
40638;DHT22;26336;44.696;10.622;2022-07-10T15:34:56;30.60;53.50
40638;DHT22;26336;44.696;10.622;2022-07-10T15:38:00;30.60;53.30
40638;DHT22;26336;44.696;10.622;2022-07-10T15:41:04;30.70;53.80
40638;DHT22;26336;44.696;10.622;2022-07-10T15:44:11;30.70;54.00
40638;DHT22;26336;44.696;10.622;2022-07-10T15:47:16;30.80;53.90
40638;DHT22;26336;44.696;10.622;2022-07-10T15:50:26;30.80;53.40
40638;DHT22;26336;44.696;10.622;2022-07-10T15:53:37;30.80;53.50
40638;DHT22;26336;44.696;10.622;2022-07-10T15:56:41;30.80;53.10
40638;DHT22;26336;44.696;10.622;2022-07-10T15:59:45;30.80;54.30
40638;DHT22;26336;44.696;10.622;2022-07-10T16:02:49;30.70;54.90
40638;DHT22;26336;44.696;10.622;2022-07-10T16:05:59;30.70;54.10
40638;DHT22;26336;44.696;10.622;2022-07-10T16:09:06;30.70;54.30
40638;DHT22;26336;44.696;10.622;2022-07-10T16:12:10;30.70;54.60
40638;DHT22;26336;44.696;10.622;2022-07-10T16:15:14;30.60;55.40
40638;DHT22;26336;44.696;10.622;2022-07-10T16:18:19;30.50;54.90
40638;DHT22;26336;44.696;10.622;2022-07-10T16:21:22;30.50;55.30
40638;DHT22;26336;44.696;10.622;2022-07-10T16:24:27;30.40;56.60
40638;DHT22;26336;44.696;10.622;2022-07-10T16:27:32;30.30;55.30
40638;DHT22;26336;44.696;10.622;2022-07-10T16:30:41;30.40;55.00
40638;DHT22;26336;44.696;10.622;2022-07-10T16:33:46;30.50;55.40
40638;DHT22;26336;44.696;10.622;2022-07-10T16:36:50;30.50;55.00
40638;DHT22;26336;44.696;10.622;2022-07-10T16:39:54;30.40;54.60
40638;DHT22;26336;44.696;10.622;2022-07-10T16:42:58;30.50;55.40
40638;DHT22;26336;44.696;10.622;2022-07-10T16:46:03;30.50;56.00
40638;DHT22;26336;44.696;10.622;2022-07-10T16:49:08;30.40;55.40
40638;DHT22;26336;44.696;10.622;2022-07-10T16:52:12;30.40;55.40
40638;DHT22;26336;44.696;10.622;2022-07-10T16:55:19;30.30;55.20
40638;DHT22;26336;44.696;10.622;2022-07-10T16:58:23;30.30;56.30
40638;DHT22;26336;44.696;10.622;2022-07-10T17:01:30;30.30;56.80
40638;DHT22;26336;44.696;10.622;2022-07-10T17:04:34;30.20;55.60
40638;DHT22;26336;44.696;10.622;2022-07-10T17:07:45;30.10;56.00
40638;DHT22;26336;44.696;10.622;2022-07-10T17:10:49;30.20;55.90
40638;DHT22;26336;44.696;10.622;2022-07-10T17:13:53;30.30;55.10
40638;DHT22;26336;44.696;10.622;2022-07-10T17:16:57;30.30;55.20
40638;DHT22;26336;44.696;10.622;2022-07-10T17:20:05;30.30;55.60
40638;DHT22;26336;44.696;10.622;2022-07-10T17:23:09;30.30;55.60
40638;DHT22;26336;44.696;10.622;2022-07-10T17:26:14;30.20;56.10
40638;DHT22;26336;44.696;10.622;2022-07-10T17:29:18;30.10;55.60
40638;DHT22;26336;44.696;10.622;2022-07-10T17:32:22;30.10;55.80
40638;DHT22;26336;44.696;10.622;2022-07-10T17:35:26;30.10;56.20
40638;DHT22;26336;44.696;10.622;2022-07-10T17:38:30;30.00;55.80
40638;DHT22;26336;44.696;10.622;2022-07-10T17:41:34;30.00;55.50
40638;DHT22;26336;44.696;10.622;2022-07-10T17:44:38;30.00;55.50
40638;DHT22;26336;44.696;10.622;2022-07-10T17:47:43;30.00;56.20
40638;DHT22;26336;44.696;10.622;2022-07-10T17:50:48;30.00;56.00
40638;DHT22;26336;44.696;10.622;2022-07-10T17:53:52;29.90;56.50
40638;DHT22;26336;44.696;10.622;2022-07-10T17:56:56;29.90;56.60
40638;DHT22;26336;44.696;10.622;2022-07-10T18:00:03;29.80;55.60
40638;DHT22;26336;44.696;10.622;2022-07-10T18:03:16;29.80;55.70
40638;DHT22;26336;44.696;10.622;2022-07-10T18:06:20;29.80;55.90
40638;DHT22;26336;44.696;10.622;2022-07-10T18:09:24;29.80;56.10
40638;DHT22;26336;44.696;10.622;2022-07-10T18:12:29;29.70;56.60
40638;DHT22;26336;44.696;10.622;2022-07-10T18:15:33;29.70;57.00
40638;DHT22;26336;44.696;10.622;2022-07-10T18:18:44;29.70;57.20
40638;DHT22;26336;44.696;10.622;2022-07-10T18:21:48;29.60;57.50
40638;DHT22;26336;44.696;10.622;2022-07-10T18:24:52;29.50;57.00
40638;DHT22;26336;44.696;10.622;2022-07-10T18:27:56;29.50;57.10
40638;DHT22;26336;44.696;10.622;2022-07-10T18:31:01;29.50;57.30
40638;DHT22;26336;44.696;10.622;2022-07-10T18:34:05;29.40;57.50
40638;DHT22;26336;44.696;10.622;2022-07-10T18:37:28;29.40;57.10
40638;DHT22;26336;44.696;10.622;2022-07-10T18:40:32;29.40;57.40
40638;DHT22;26336;44.696;10.622;2022-07-10T18:43:36;29.30;57.60
40638;DHT22;26336;44.696;10.622;2022-07-10T18:46:41;29.30;57.40
40638;DHT22;26336;44.696;10.622;2022-07-10T18:49:45;29.30;57.60
40638;DHT22;26336;44.696;10.622;2022-07-10T18:52:48;29.30;57.90
40638;DHT22;26336;44.696;10.622;2022-07-10T18:55:52;29.20;58.40
40638;DHT22;26336;44.696;10.622;2022-07-10T18:58:57;29.20;58.60
40638;DHT22;26336;44.696;10.622;2022-07-10T19:02:01;29.20;59.10
40638;DHT22;26336;44.696;10.622;2022-07-10T19:05:05;29.10;59.00
40638;DHT22;26336;44.696;10.622;2022-07-10T19:08:09;29.00;59.40
40638;DHT22;26336;44.696;10.622;2022-07-10T19:11:14;29.00;59.30
40638;DHT22;26336;44.696;10.622;2022-07-10T19:14:18;29.00;59.60
40638;DHT22;26336;44.696;10.622;2022-07-10T19:17:23;29.00;60.30
40638;DHT22;26336;44.696;10.622;2022-07-10T19:20:27;29.00;59.80
40638;DHT22;26336;44.696;10.622;2022-07-10T19:23:32;29.00;60.00
40638;DHT22;26336;44.696;10.622;2022-07-10T19:26:37;28.90;60.20
40638;DHT22;26336;44.696;10.622;2022-07-10T19:29:42;28.90;60.30
40638;DHT22;26336;44.696;10.622;2022-07-10T19:32:46;28.80;60.50
40638;DHT22;26336;44.696;10.622;2022-07-10T19:35:50;28.80;60.70